This is the latest recevied weather packets stored in our database for station/object WX2P-13. If no packets are shown the sender has not sent any weather packets the latest 10 day(s).
| Time | Temp. | Humidity | Pressure | Rain* | Wind** | Luminosity | Snow |
|---|---|---|---|---|---|---|---|
| 1777847528 | 27.22° C | 48% | 1015.7 hPa | 0 mm | - | 80 W/m² | - |
| 1777846621 | 27.22° C | 49% | 1015.8 hPa | 0 mm | - | 63 W/m² | - |
| 1777846014 | 27.22° C | 46% | 1015.9 hPa | 0 mm | - | 240 W/m² | - |
| 1777845408 | 27.22° C | 45% | 1016.1 hPa | 0 mm | - | 57 W/m² | - |
| 1777845104 | 27.22° C | 46% | 1015.8 hPa | 0 mm | - | 58 W/m² | - |
| 1777844198 | 27.22° C | 48% | 1016 hPa | 0 mm | - | 161 W/m² | - |
| 1777843591 | 26.67° C | 48% | 1015.8 hPa | 0 mm | - | 78 W/m² | - |
| 1777843289 | 27.22° C | 47% | 1016.1 hPa | 0 mm | - | 74 W/m² | - |
| 1777842987 | 26.67° C | 48% | 1016 hPa | 0 mm | - | 79 W/m² | - |
| 1777842682 | 27.22° C | 47% | 1015.8 hPa | 0 mm | - | 250 W/m² | - |
| 1777842378 | 26.67° C | 48% | 1015.9 hPa | 0 mm | - | 63 W/m² | - |
| 1777841462 | 27.22° C | 45% | 1016.1 hPa | 0 mm | - | 62 W/m² | - |
| 1777841159 | 26.11° C | 46% | 1016.4 hPa | 0 mm | - | 86 W/m² | - |
| 1777840553 | 27.22° C | 50% | 1016.3 hPa | 0 mm | - | 169 W/m² | - |
| 1777840250 | 26.67° C | 48% | 1016.4 hPa | 0 mm | - | 78 W/m² | - |
| 1777839948 | 26.11° C | 47% | 1016.4 hPa | 0 mm | - | 94 W/m² | - |
| 1777839646 | 26.11° C | 49% | 1016.3 hPa | 0 mm | - | 77 W/m² | - |
| 1777839344 | 26.11° C | 48% | 1016.4 hPa | 0 mm | - | 67 W/m² | - |
| 1777839041 | 26.67° C | 49% | 1016.5 hPa | 0 mm | - | 72 W/m² | - |
| 1777838130 | 27.22° C | 46% | 1016.6 hPa | 0 mm | - | 78 W/m² | - |
| 1777836616 | 26.67° C | 49% | 1017.1 hPa | 0 mm | - | 78 W/m² | - |
| 1777835099 | 26.11° C | 49% | 1017.4 hPa | 0 mm | - | 101 W/m² | - |
| 1777832978 | 26.67° C | 49% | 1018 hPa | 0 mm | - | 318 W/m² | - |
| 1777832374 | 27.22° C | 51% | 1018.2 hPa | 0 mm | - | 328 W/m² | - |
| 1777827529 | 25° C | 58% | 1019.1 hPa | 0 mm | - | 781 W/m² | - |
* Rain latest hour (hover to see other rain measurements)
** Current wind speed in m/s (hover to see current wind gust speed)